Time;durP1;ratioP1;P1;durP2;ratioP2;P2;SDS_P1;SDS_P2;PMS_P1;PMS_P2;Temp;Humidity;BMP_temperature;BMP_pressure;BME280_temperature;BME280_humidity;BME280_pressure;Samples;Min_cycle;Max_cycle;Signal;HPM_P1;HPM_P2
2024/01/30 00:02:26;;;;;;;11.05;8.52;;;;;;;;;;5052088;28;20398;-56
2024/01/30 00:04:53;;;;;;;9.55;8.20;;;;;;;;;;5053990;28;20350;-56
2024/01/30 00:07:20;;;;;;;11.25;8.23;;;;;;;;;;5055576;28;20060;-56
2024/01/30 00:09:48;;;;;;;10.00;7.63;;;;;;;;;;5054994;28;20048;-56
2024/01/30 00:12:16;;;;;;;8.23;7.15;;;;;;;;;;5055426;28;20057;-57
2024/01/30 00:14:43;;;;;;;13.40;8.40;;;;;;;;;;5055357;28;20048;-56
2024/01/30 00:17:09;;;;;;;9.05;7.75;;;;;;;;;;5056069;28;20071;-55
2024/01/30 00:19:36;;;;;;;10.95;8.18;;;;;;;;;;5055333;28;20053;-57
2024/01/30 00:22:03;;;;;;;11.45;8.18;;;;;;;;;;5055270;28;20060;-56
2024/01/30 00:24:30;;;;;;;10.00;8.32;;;;;;;;;;5065034;28;20052;-59
2024/01/30 00:26:58;;;;;;;11.63;8.13;;;;;;;;;;5074938;28;20143;-56
2024/01/30 00:29:29;;;;;;;11.98;9.25;;;;;;;;;;5075023;28;20049;-56
2024/01/30 00:31:56;;;;;;;11.82;8.70;;;;;;;;;;5059146;28;20053;-57
2024/01/30 00:34:23;;;;;;;11.98;8.75;;;;;;;;;;5054532;28;20052;-56
2024/01/30 00:36:50;;;;;;;11.70;8.52;;;;;;;;;;5055079;28;20053;-56
2024/01/30 00:39:19;;;;;;;10.73;7.68;;;;;;;;;;5054639;28;20064;-57
2024/01/30 00:41:46;;;;;;;11.50;8.45;;;;;;;;;;5054703;28;20506;-56
2024/01/30 00:44:14;;;;;;;11.60;7.95;;;;;;;;;;5054778;28;20139;-56
2024/01/30 00:46:41;;;;;;;10.25;8.68;;;;;;;;;;5054692;28;20053;-57
2024/01/30 00:49:08;;;;;;;12.13;8.77;;;;;;;;;;5054427;28;20060;-56
2024/01/30 00:51:34;;;;;;;10.27;8.32;;;;;;;;;;5054661;28;20068;-57
2024/01/30 00:54:01;;;;;;;11.95;8.45;;;;;;;;;;5054315;28;20049;-57
2024/01/30 00:56:28;;;;;;;11.32;8.25;;;;;;;;;;5054520;28;20076;-57
2024/01/30 00:58:55;;;;;;;8.35;7.20;;;;;;;;;;5057394;28;20052;-57
2024/01/30 01:01:23;;;;;;;10.68;7.78;;;;;;;;;;5067622;28;20045;-57
2024/01/30 01:03:50;;;;;;;11.32;8.45;;;;;;;;;;5054221;28;20049;-57
2024/01/30 01:06:17;;;;;;;12.00;8.63;;;;;;;;;;5054241;28;20049;-56
2024/01/30 01:08:44;;;;;;;11.73;9.07;;;;;;;;;;5054342;28;20056;-56
2024/01/30 01:11:10;;;;;;;11.02;8.70;;;;;;;;;;5054341;28;20060;-56
2024/01/30 01:13:37;;;;;;;11.02;8.35;;;;;;;;;;5053994;28;20075;-59
2024/01/30 01:16:04;;;;;;;12.10;8.65;;;;;;;;;;5054465;28;21447;-56
2024/01/30 01:18:33;;;;;;;12.20;9.40;;;;;;;;;;5053569;28;20060;-58
2024/01/30 01:21:00;;;;;;;11.90;9.68;;;;;;;;;;5053718;28;20413;-58
2024/01/30 01:23:27;;;;;;;12.77;9.45;;;;;;;;;;5051986;28;20395;-58
2024/01/30 01:25:55;;;;;;;12.40;8.82;;;;;;;;;;5058723;28;20052;-58
2024/01/30 01:28:22;;;;;;;11.50;8.98;;;;;;;;;;5073898;28;20055;-57
2024/01/30 01:30:49;;;;;;;13.95;9.13;;;;;;;;;;5073666;28;20056;-56
2024/01/30 01:33:15;;;;;;;12.77;9.30;;;;;;;;;;5066274;28;20055;-56
2024/01/30 01:35:44;;;;;;;11.98;9.00;;;;;;;;;;5073701;28;20410;-57
2024/01/30 01:38:11;;;;;;;10.88;8.68;;;;;;;;;;5073620;28;20063;-57
2024/01/30 01:40:39;;;;;;;11.60;9.07;;;;;;;;;;5073202;28;20414;-57
2024/01/30 01:43:06;;;;;;;12.15;8.90;;;;;;;;;;5073479;28;20052;-57
2024/01/30 01:45:33;;;;;;;12.30;8.40;;;;;;;;;;5073568;28;20049;-57
2024/01/30 01:48:00;;;;;;;10.73;8.75;;;;;;;;;;5059333;28;20060;-56
2024/01/30 01:50:27;;;;;;;10.80;7.70;;;;;;;;;;5053596;28;20052;-57
2024/01/30 01:52:56;;;;;;;11.55;8.23;;;;;;;;;;5053506;28;20490;-57
2024/01/30 01:55:24;;;;;;;10.60;8.80;;;;;;;;;;5053417;28;20049;-57
2024/01/30 01:57:51;;;;;;;10.35;8.18;;;;;;;;;;5053707;28;20057;-57
2024/01/30 02:00:19;;;;;;;11.70;8.50;;;;;;;;;;5067586;28;20052;-56
2024/01/30 02:02:46;;;;;;;12.20;8.50;;;;;;;;;;5061759;28;20044;-55
2024/01/30 02:05:13;;;;;;;11.80;8.70;;;;;;;;;;5053339;28;20058;-56
2024/01/30 02:07:40;;;;;;;11.65;8.15;;;;;;;;;;5053415;28;20063;-57
2024/01/30 02:10:08;;;;;;;10.77;8.45;;;;;;;;;;5052801;28;20064;-56
2024/01/30 02:12:35;;;;;;;10.32;7.75;;;;;;;;;;5053410;28;20049;-56
2024/01/30 02:15:02;;;;;;;13.88;9.40;;;;;;;;;;5053303;28;20056;-56
2024/01/30 02:17:29;;;;;;;11.82;8.40;;;;;;;;;;5052910;28;20060;-56
2024/01/30 02:19:56;;;;;;;14.32;9.45;;;;;;;;;;5053210;28;20049;-56
2024/01/30 02:22:24;;;;;;;11.43;8.68;;;;;;;;;;5053092;28;20060;-57
2024/01/30 02:24:51;;;;;;;11.20;7.97;;;;;;;;;;5053046;28;20057;-56
2024/01/30 02:27:18;;;;;;;13.02;8.85;;;;;;;;;;5052778;28;20063;-56
2024/01/30 02:29:44;;;;;;;12.55;8.48;;;;;;;;;;5072580;28;20049;-56
2024/01/30 02:32:11;;;;;;;10.85;8.40;;;;;;;;;;5071604;28;20056;-56
2024/01/30 02:34:38;;;;;;;12.65;8.60;;;;;;;;;;5052615;28;20053;-57
2024/01/30 02:37:05;;;;;;;9.55;7.68;;;;;;;;;;5053005;28;20383;-56
2024/01/30 02:39:33;;;;;;;9.80;8.15;;;;;;;;;;5052859;28;20418;-56
2024/01/30 02:42:00;;;;;;;11.95;7.88;;;;;;;;;;5052558;28;20056;-56
2024/01/30 02:44:26;;;;;;;10.98;8.75;;;;;;;;;;5052946;28;20064;-56
2024/01/30 02:46:55;;;;;;;12.60;8.23;;;;;;;;;;5052666;28;20053;-56
2024/01/30 02:49:21;;;;;;;10.10;7.80;;;;;;;;;;5070150;28;20408;-57
2024/01/30 02:51:48;;;;;;;10.27;8.93;;;;;;;;;;5072926;28;20396;-57
2024/01/30 02:54:15;;;;;;;10.93;7.82;;;;;;;;;;5072442;28;20428;-56
2024/01/30 02:56:43;;;;;;;11.43;7.97;;;;;;;;;;5072840;28;20466;-57
2024/01/30 02:59:10;;;;;;;9.40;7.88;;;;;;;;;;5072098;28;20078;-57
2024/01/30 03:01:43;;;;;;;10.05;7.80;;;;;;;;;;5072490;28;20053;-56
2024/01/30 03:04:10;;;;;;;11.65;8.45;;;;;;;;;;5058227;28;20410;-57
2024/01/30 03:06:36;;;;;;;12.07;8.43;;;;;;;;;;5052489;28;20048;-56
2024/01/30 03:09:04;;;;;;;10.75;7.97;;;;;;;;;;5052425;28;20052;-57
2024/01/30 03:11:31;;;;;;;11.55;8.68;;;;;;;;;;5052455;28;20057;-56
2024/01/30 03:13:59;;;;;;;10.25;8.55;;;;;;;;;;5052183;28;20052;-57
2024/01/30 03:16:26;;;;;;;10.70;7.95;;;;;;;;;;5052490;28;20045;-56
2024/01/30 03:18:53;;;;;;;11.48;8.65;;;;;;;;;;5052659;28;20053;-57
2024/01/30 03:21:19;;;;;;;9.75;8.75;;;;;;;;;;5052161;28;20402;-57
2024/01/30 03:23:46;;;;;;;10.93;8.88;;;;;;;;;;5052588;28;20479;-57
2024/01/30 03:26:14;;;;;;;11.45;9.23;;;;;;;;;;5052269;28;20056;-57
2024/01/30 03:28:41;;;;;;;11.18;8.80;;;;;;;;;;5052104;28;20063;-56
2024/01/30 03:31:09;;;;;;;13.63;9.25;;;;;;;;;;5067415;28;20139;-57
2024/01/30 03:33:37;;;;;;;10.82;8.75;;;;;;;;;;5067195;28;20049;-57
2024/01/30 03:36:04;;;;;;;9.63;8.25;;;;;;;;;;5052160;28;20049;-56
2024/01/30 03:38:32;;;;;;;11.95;8.45;;;;;;;;;;5052106;28;20064;-56
2024/01/30 03:40:59;;;;;;;12.30;8.88;;;;;;;;;;5055607;28;20514;-57
2024/01/30 03:43:26;;;;;;;11.68;8.50;;;;;;;;;;5055796;28;20070;-57
2024/01/30 03:45:53;;;;;;;13.07;8.40;;;;;;;;;;5055851;28;20053;-57
2024/01/30 03:48:21;;;;;;;9.73;7.97;;;;;;;;;;5056374;28;20053;-57
2024/01/30 03:50:48;;;;;;;11.60;8.50;;;;;;;;;;5055828;28;20053;-56
2024/01/30 03:53:15;;;;;;;9.95;7.75;;;;;;;;;;5075513;28;20059;-57
2024/01/30 03:55:42;;;;;;;10.70;8.00;;;;;;;;;;5075552;28;20068;-57
2024/01/30 03:58:09;;;;;;;9.73;7.95;;;;;;;;;;5076023;28;20053;-57
2024/01/30 04:00:36;;;;;;;12.25;8.20;;;;;;;;;;5075502;28;20056;-57
2024/01/30 04:03:03;;;;;;;10.48;8.88;;;;;;;;;;5075645;28;20405;-57
2024/01/30 04:05:31;;;;;;;10.00;7.95;;;;;;;;;;5058981;28;20057;-56
2024/01/30 04:07:58;;;;;;;10.20;7.88;;;;;;;;;;5055808;28;20135;-56
2024/01/30 04:10:25;;;;;;;10.70;7.90;;;;;;;;;;5054985;28;20053;-57
2024/01/30 04:12:53;;;;;;;10.70;7.32;;;;;;;;;;5055519;28;20057;-57
2024/01/30 04:15:21;;;;;;;8.80;6.93;;;;;;;;;;5055007;28;20057;-57
2024/01/30 04:17:48;;;;;;;11.82;8.45;;;;;;;;;;5055336;28;20057;-56
2024/01/30 04:20:15;;;;;;;11.15;8.10;;;;;;;;;;5055773;28;20490;-57
2024/01/30 04:22:44;;;;;;;10.77;7.70;;;;;;;;;;5055476;28;20425;-57
2024/01/30 04:25:10;;;;;;;12.60;8.02;;;;;;;;;;5055062;28;20059;-57
2024/01/30 04:27:37;;;;;;;11.07;8.15;;;;;;;;;;5055323;28;20052;-57
2024/01/30 04:30:04;;;;;;;12.02;8.23;;;;;;;;;;5054766;28;20049;-56
2024/01/30 04:32:31;;;;;;;9.77;7.78;;;;;;;;;;5054856;28;20053;-56
2024/01/30 04:34:58;;;;;;;10.30;7.90;;;;;;;;;;5055434;28;20056;-57
2024/01/30 04:37:25;;;;;;;10.05;7.53;;;;;;;;;;5055107;28;20044;-57
2024/01/30 04:39:53;;;;;;;9.07;6.95;;;;;;;;;;5054602;28;20079;-57
2024/01/30 04:42:20;;;;;;;11.57;8.50;;;;;;;;;;5055205;28;20052;-57
2024/01/30 04:44:47;;;;;;;10.40;7.55;;;;;;;;;;5054897;28;20056;-57
2024/01/30 04:47:14;;;;;;;9.77;7.72;;;;;;;;;;5054784;28;20056;-58
2024/01/30 04:49:41;;;;;;;10.23;7.22;;;;;;;;;;5054987;28;20055;-57
2024/01/30 04:52:08;;;;;;;9.90;7.90;;;;;;;;;;5054829;28;20057;-57
2024/01/30 04:54:35;;;;;;;13.50;10.55;;;;;;;;;;5054817;28;20057;-57
2024/01/30 04:57:05;;;;;;;8.90;7.57;;;;;;;;;;5054905;28;20490;-57
2024/01/30 04:59:32;;;;;;;10.65;7.78;;;;;;;;;;5054605;28;20057;-57
2024/01/30 05:01:59;;;;;;;9.50;7.35;;;;;;;;;;5054596;28;20052;-57
2024/01/30 05:04:25;;;;;;;10.25;7.30;;;;;;;;;;5054413;28;20048;-59
2024/01/30 05:06:52;;;;;;;9.20;6.93;;;;;;;;;;5054680;28;20053;-57
2024/01/30 05:09:20;;;;;;;9.23;7.22;;;;;;;;;;5054422;28;20119;-57
2024/01/30 05:11:46;;;;;;;10.88;7.65;;;;;;;;;;5054147;28;20072;-58
2024/01/30 05:14:16;;;;;;;10.75;7.40;;;;;;;;;;5060737;28;20056;-57
2024/01/30 05:16:46;;;;;;;9.05;7.65;;;;;;;;;;5073570;28;20386;-57
2024/01/30 05:19:13;;;;;;;9.07;7.00;;;;;;;;;;5073828;28;20076;-57
2024/01/30 05:21:40;;;;;;;10.27;7.10;;;;;;;;;;5058246;28;20064;-57
2024/01/30 05:24:09;;;;;;;13.35;8.48;;;;;;;;;;5054121;28;20057;-57
2024/01/30 05:26:36;;;;;;;9.90;7.70;;;;;;;;;;5053779;28;20053;-57
2024/01/30 05:29:03;;;;;;;10.95;7.40;;;;;;;;;;5054329;28;20486;-57
2024/01/30 05:31:31;;;;;;;9.07;7.75;;;;;;;;;;5054012;28;20048;-58
2024/01/30 05:33:58;;;;;;;12.43;8.18;;;;;;;;;;5053777;28;20061;-57
2024/01/30 05:36:25;;;;;;;11.02;7.80;;;;;;;;;;5061533;28;20052;-56
2024/01/30 05:38:52;;;;;;;13.27;7.40;;;;;;;;;;5073163;28;20056;-57
2024/01/30 05:41:18;;;;;;;9.50;7.30;;;;;;;;;;5072485;28;20397;-56
2024/01/30 05:43:45;;;;;;;11.73;7.50;;;;;;;;;;5073399;28;20052;-57
2024/01/30 05:46:12;;;;;;;9.32;7.32;;;;;;;;;;5066631;28;20390;-57
2024/01/30 05:48:40;;;;;;;10.32;7.45;;;;;;;;;;5054443;28;20057;-57
2024/01/30 05:51:08;;;;;;;11.70;7.43;;;;;;;;;;5054166;28;20056;-57
2024/01/30 05:53:35;;;;;;;9.85;7.30;;;;;;;;;;5053522;28;20055;-57
2024/01/30 05:56:02;;;;;;;8.82;6.50;;;;;;;;;;5053061;28;20053;-57
2024/01/30 05:58:29;;;;;;;9.88;7.88;;;;;;;;;;5053406;28;20474;-56
2024/01/30 06:00:55;;;;;;;10.48;6.97;;;;;;;;;;5053186;28;20053;-57
2024/01/30 06:03:22;;;;;;;8.80;7.05;;;;;;;;;;5052389;28;20053;-57
2024/01/30 06:05:49;;;;;;;9.65;7.03;;;;;;;;;;5053412;28;20045;-55
2024/01/30 06:08:16;;;;;;;8.57;6.75;;;;;;;;;;5052944;28;20045;-56
2024/01/30 06:10:43;;;;;;;9.30;6.95;;;;;;;;;;5053330;28;20128;-57
2024/01/30 06:13:10;;;;;;;11.32;7.82;;;;;;;;;;5053181;28;20053;-57
2024/01/30 06:15:37;;;;;;;9.85;7.22;;;;;;;;;;5053020;28;20064;-56
2024/01/30 06:18:03;;;;;;;10.60;6.95;;;;;;;;;;5051975;28;20067;-56
2024/01/30 06:20:30;;;;;;;9.80;7.25;;;;;;;;;;5053002;28;20048;-57
2024/01/30 06:22:58;;;;;;;9.95;7.57;;;;;;;;;;5067327;28;20056;-56
2024/01/30 06:25:25;;;;;;;9.90;7.43;;;;;;;;;;5056350;28;20052;-56
2024/01/30 06:27:52;;;;;;;10.30;7.00;;;;;;;;;;5072164;28;20063;-56
2024/01/30 06:30:19;;;;;;;9.98;6.80;;;;;;;;;;5064649;28;20060;-56
2024/01/30 06:32:46;;;;;;;10.48;6.90;;;;;;;;;;5053180;28;20060;-56
2024/01/30 06:35:13;;;;;;;7.65;6.25;;;;;;;;;;5052824;28;20379;-57
2024/01/30 06:37:39;;;;;;;7.78;6.82;;;;;;;;;;5053496;28;20048;-56
2024/01/30 06:40:08;;;;;;;9.07;6.78;;;;;;;;;;5052237;28;20057;-56
2024/01/30 06:42:35;;;;;;;9.48;7.10;;;;;;;;;;5052710;28;20057;-58
2024/01/30 06:45:02;;;;;;;9.00;6.93;;;;;;;;;;5068679;28;20520;-56
2024/01/30 06:47:30;;;;;;;10.55;7.18;;;;;;;;;;5070611;28;20048;-57
2024/01/30 06:49:57;;;;;;;11.15;6.85;;;;;;;;;;5072306;28;20052;-57
2024/01/30 06:52:24;;;;;;;8.52;6.82;;;;;;;;;;5054649;28;20456;-56
2024/01/30 06:54:51;;;;;;;9.02;7.07;;;;;;;;;;5066011;28;20063;-57
2024/01/30 06:57:19;;;;;;;8.32;6.82;;;;;;;;;;5062618;28;20052;-56
2024/01/30 06:59:46;;;;;;;7.80;6.10;;;;;;;;;;5062182;28;20045;-57
2024/01/30 07:02:13;;;;;;;8.07;6.40;;;;;;;;;;5067802;28;20048;-56
2024/01/30 07:04:41;;;;;;;7.95;6.38;;;;;;;;;;5072843;28;20053;-56
2024/01/30 07:07:12;;;;;;;9.57;6.35;;;;;;;;;;5060787;28;20049;-58
2024/01/30 07:09:39;;;;;;;11.45;6.93;;;;;;;;;;5052581;28;20059;-56
2024/01/30 07:12:07;;;;;;;10.73;6.45;;;;;;;;;;5072027;28;20056;-56
2024/01/30 07:14:35;;;;;;;9.90;7.07;;;;;;;;;;5067352;28;20053;-57
2024/01/30 07:17:02;;;;;;;9.15;6.53;;;;;;;;;;5071396;28;20049;-56
2024/01/30 07:19:28;;;;;;;7.97;6.82;;;;;;;;;;5067150;28;20425;-56
2024/01/30 07:21:55;;;;;;;9.05;6.57;;;;;;;;;;5068507;28;20383;-57
2024/01/30 07:24:22;;;;;;;8.75;6.07;;;;;;;;;;5056181;28;20086;-56
2024/01/30 07:26:49;;;;;;;9.60;6.40;;;;;;;;;;5056515;28;20055;-57
2024/01/30 07:29:16;;;;;;;11.80;7.28;;;;;;;;;;5056534;28;20482;-57
2024/01/30 07:31:44;;;;;;;8.02;6.35;;;;;;;;;;5075617;28;20059;-57
2024/01/30 07:34:11;;;;;;;14.05;6.88;;;;;;;;;;5076220;28;20044;-56
2024/01/30 07:36:38;;;;;;;7.68;6.05;;;;;;;;;;5072795;28;20500;-56
2024/01/30 07:39:05;;;;;;;9.90;6.35;;;;;;;;;;5058101;28;20450;-57
2024/01/30 07:41:31;;;;;;;8.63;6.13;;;;;;;;;;5072882;28;20049;-57
2024/01/30 07:43:58;;;;;;;9.23;6.43;;;;;;;;;;5076037;28;20057;-57
2024/01/30 07:46:25;;;;;;;7.63;6.43;;;;;;;;;;5062578;28;20064;-57
2024/01/30 07:48:53;;;;;;;8.15;6.72;;;;;;;;;;5061947;28;20048;-57
2024/01/30 07:51:20;;;;;;;8.52;6.53;;;;;;;;;;5066825;28;20056;-57
2024/01/30 07:53:47;;;;;;;10.15;6.40;;;;;;;;;;5056688;28;20057;-57
2024/01/30 07:56:13;;;;;;;8.23;6.20;;;;;;;;;;5068528;28;20052;-57
2024/01/30 07:58:40;;;;;;;9.50;6.22;;;;;;;;;;5066756;28;20041;-57
2024/01/30 08:01:07;;;;;;;8.25;6.57;;;;;;;;;;5063871;28;20056;-56
2024/01/30 08:03:34;;;;;;;8.60;6.18;;;;;;;;;;5073304;28;20044;-56
2024/01/30 08:06:02;;;;;;;8.48;5.47;;;;;;;;;;5061052;28;20061;-59
2024/01/30 08:08:29;;;;;;;8.48;6.18;;;;;;;;;;5065880;28;20438;-58
2024/01/30 08:10:56;;;;;;;8.45;6.00;;;;;;;;;;5068914;28;20429;-58
2024/01/30 08:13:23;;;;;;;8.77;5.90;;;;;;;;;;5069171;28;20055;-57
2024/01/30 08:15:50;;;;;;;8.25;6.00;;;;;;;;;;5066389;28;20580;-57
2024/01/30 08:18:16;;;;;;;7.82;4.97;;;;;;;;;;5067821;28;20075;-57
2024/01/30 08:20:43;;;;;;;8.35;5.68;;;;;;;;;;5062052;28;20492;-58
2024/01/30 08:23:11;;;;;;;7.15;5.28;;;;;;;;;;5063737;28;20064;-57
2024/01/30 08:25:38;;;;;;;9.90;5.40;;;;;;;;;;5080081;28;20115;-57
2024/01/30 08:28:05;;;;;;;10.85;5.40;;;;;;;;;;5056825;28;20052;-56
2024/01/30 08:30:32;;;;;;;7.65;5.00;;;;;;;;;;5062910;28;20056;-57
2024/01/30 08:32:59;;;;;;;7.22;5.07;;;;;;;;;;5062564;28;20057;-57
2024/01/30 08:35:26;;;;;;;7.47;5.10;;;;;;;;;;5055621;28;20498;-57
2024/01/30 08:37:54;;;;;;;7.40;5.30;;;;;;;;;;5055030;28;20049;-56
2024/01/30 08:40:22;;;;;;;6.38;5.10;;;;;;;;;;5063703;28;20056;-57
2024/01/30 08:42:49;;;;;;;7.88;5.43;;;;;;;;;;5059354;28;20049;-57
2024/01/30 08:45:19;;;;;;;12.27;5.28;;;;;;;;;;5063627;28;20056;-57
2024/01/30 08:47:45;;;;;;;;;;;;;;;;;;5055159;28;20106;-57
2024/01/30 08:50:12;;;;;;;8.55;5.03;;;;;;;;;;5054856;28;19921;-57
2024/01/30 08:52:39;;;;;;;8.07;4.90;;;;;;;;;;5061400;28;20059;-57
2024/01/30 08:55:06;;;;;;;6.47;4.80;;;;;;;;;;5063233;28;20464;-57
2024/01/30 08:57:34;;;;;;;11.05;5.50;;;;;;;;;;5069701;28;20063;-57
2024/01/30 09:00:04;;;;;;;7.22;4.80;;;;;;;;;;5062458;28;20414;-58
2024/01/30 09:02:31;;;;;;;7.30;5.07;;;;;;;;;;5063902;28;20055;-57
2024/01/30 09:04:57;;;;;;;8.32;4.65;;;;;;;;;;5063282;28;20635;-57
2024/01/30 09:07:24;;;;;;;6.18;4.32;;;;;;;;;;5063633;28;20072;-57
2024/01/30 09:09:51;;;;;;;6.70;5.07;;;;;;;;;;5055563;28;20045;-57
2024/01/30 09:12:18;;;;;;;7.97;5.22;;;;;;;;;;5074394;28;20052;-57
2024/01/30 09:14:46;;;;;;;7.00;5.05;;;;;;;;;;5073930;28;20056;-57
2024/01/30 09:17:13;;;;;;;7.30;5.57;;;;;;;;;;5058712;28;20048;-58
2024/01/30 09:19:40;;;;;;;9.00;5.10;;;;;;;;;;5073743;28;20056;-56
2024/01/30 09:22:06;;;;;;;7.38;5.15;;;;;;;;;;5057925;28;20057;-57
2024/01/30 09:24:33;;;;;;;7.38;4.95;;;;;;;;;;5054084;28;20057;-57
2024/01/30 09:27:00;;;;;;;7.35;4.90;;;;;;;;;;5054652;28;20056;-57
2024/01/30 09:29:27;;;;;;;6.63;4.93;;;;;;;;;;5054598;28;20053;-56
2024/01/30 09:31:55;;;;;;;9.02;5.55;;;;;;;;;;5073263;28;20064;-57
2024/01/30 09:34:22;;;;;;;8.23;5.07;;;;;;;;;;5056365;28;20049;-57
2024/01/30 09:36:48;;;;;;;8.05;5.28;;;;;;;;;;5067096;28;20048;-56
2024/01/30 09:39:16;;;;;;;6.22;4.72;;;;;;;;;;5064347;28;20418;-57
2024/01/30 09:41:45;;;;;;;8.23;5.43;;;;;;;;;;5073036;28;20052;-56
2024/01/30 09:44:13;;;;;;;9.43;5.22;;;;;;;;;;5073027;28;20056;-57
2024/01/30 09:46:40;;;;;;;6.80;5.20;;;;;;;;;;5071308;28;20052;-57
2024/01/30 09:49:09;;;;;;;6.45;4.63;;;;;;;;;;5071650;28;20044;-57
2024/01/30 09:51:36;;;;;;;6.63;5.00;;;;;;;;;;5054421;28;20060;-57
2024/01/30 09:54:03;;;;;;;8.40;4.90;;;;;;;;;;5056230;28;20490;-57
2024/01/30 09:56:30;;;;;;;6.38;5.03;;;;;;;;;;5053447;28;20045;-57
2024/01/30 09:58:56;;;;;;;6.75;5.00;;;;;;;;;;5053784;28;20049;-57
2024/01/30 10:01:23;;;;;;;5.97;4.75;;;;;;;;;;5060771;28;20052;-57
2024/01/30 10:03:51;;;;;;;6.57;5.00;;;;;;;;;;5067830;28;20051;-57
2024/01/30 10:06:20;;;;;;;9.25;5.18;;;;;;;;;;5073367;28;20068;-58
2024/01/30 10:08:47;;;;;;;8.77;5.37;;;;;;;;;;5055359;28;20430;-57
2024/01/30 10:11:14;;;;;;;6.68;5.45;;;;;;;;;;5073205;28;20486;-57
2024/01/30 10:13:41;;;;;;;9.68;5.55;;;;;;;;;;5067538;28;20485;-57
2024/01/30 10:16:08;;;;;;;6.47;4.68;;;;;;;;;;5059152;28;20063;-57
2024/01/30 10:18:34;;;;;;;8.40;5.65;;;;;;;;;;5060784;28;20045;-56
2024/01/30 10:21:01;;;;;;;6.40;5.07;;;;;;;;;;5053056;28;20486;-56
2024/01/30 10:23:31;;;;;;;7.55;4.82;;;;;;;;;;5060157;28;20411;-57
2024/01/30 10:25:58;;;;;;;8.25;5.13;;;;;;;;;;5052640;28;20053;-57
2024/01/30 10:28:29;;;;;;;6.45;4.65;;;;;;;;;;5065488;28;20052;-58
2024/01/30 10:31:00;;;;;;;8.27;5.50;;;;;;;;;;5065723;28;20057;-57
2024/01/30 10:33:27;;;;;;;8.43;5.13;;;;;;;;;;5056359;28;20397;-56
2024/01/30 10:35:55;;;;;;;6.53;5.13;;;;;;;;;;5063150;28;20056;-56
2024/01/30 10:38:22;;;;;;;7.32;5.18;;;;;;;;;;5072165;28;20053;-56
2024/01/30 10:40:53;;;;;;;6.68;5.05;;;;;;;;;;5055143;28;20053;-56
2024/01/30 10:43:20;;;;;;;6.78;5.10;;;;;;;;;;5057020;28;20048;-57
2024/01/30 10:45:49;;;;;;;7.82;4.88;;;;;;;;;;5055515;28;20059;-57
2024/01/30 10:48:17;;;;;;;6.00;4.88;;;;;;;;;;5060760;28;20052;-58
2024/01/30 10:50:44;;;;;;;7.35;4.68;;;;;;;;;;5052370;28;20049;-57
2024/01/30 10:53:11;;;;;;;6.10;4.50;;;;;;;;;;5052877;28;20057;-58
2024/01/30 10:55:39;;;;;;;7.72;5.10;;;;;;;;;;5058299;28;20056;-58
2024/01/30 10:58:08;;;;;;;5.72;4.55;;;;;;;;;;5054062;28;20059;-60
2024/01/30 11:00:35;;;;;;;7.32;4.97;;;;;;;;;;5052577;28;20406;-57
2024/01/30 11:03:01;;;;;;;6.97;5.25;;;;;;;;;;5053996;28;20110;-57
2024/01/30 11:05:29;;;;;;;6.97;5.00;;;;;;;;;;5054187;28;20084;-57
2024/01/30 11:07:55;;;;;;;6.15;4.55;;;;;;;;;;5052738;28;20064;-57
2024/01/30 11:10:25;;;;;;;5.47;4.63;;;;;;;;;;5051688;28;20049;-58
2024/01/30 11:12:52;;;;;;;9.25;4.50;;;;;;;;;;5052665;28;20045;-58
2024/01/30 11:15:21;;;;;;;7.75;4.70;;;;;;;;;;5066092;28;20068;-57
2024/01/30 11:17:51;;;;;;;6.20;4.47;;;;;;;;;;5054627;28;20053;-58
2024/01/30 11:20:20;;;;;;;7.30;4.50;;;;;;;;;;5060553;28;20616;-58
2024/01/30 11:22:47;;;;;;;6.70;4.70;;;;;;;;;;5049372;28;20060;-58
2024/01/30 11:25:15;;;;;;;5.90;4.05;;;;;;;;;;5047456;28;20056;-58
2024/01/30 11:27:42;;;;;;;9.93;4.70;;;;;;;;;;5047665;28;20049;-58
2024/01/30 11:30:09;;;;;;;7.70;4.35;;;;;;;;;;5050051;28;20048;-60
2024/01/30 11:32:38;;;;;;;5.97;4.40;;;;;;;;;;5049016;28;20505;-58
2024/01/30 11:35:06;;;;;;;6.83;4.07;;;;;;;;;;5048019;28;20052;-58
2024/01/30 11:37:37;;;;;;;6.17;3.93;;;;;;;;;;5049628;28;20053;-58
2024/01/30 11:40:05;;;;;;;4.95;3.60;;;;;;;;;;5048956;28;20391;-58
2024/01/30 11:42:32;;;;;;;7.85;4.70;;;;;;;;;;5051808;28;20056;-58
2024/01/30 11:45:00;;;;;;;6.03;3.97;;;;;;;;;;5049627;28;20053;-58
2024/01/30 11:47:27;;;;;;;7.25;4.53;;;;;;;;;;5048485;28;20493;-60
2024/01/30 11:49:55;;;;;;;8.02;4.25;;;;;;;;;;5051285;28;20057;-58
2024/01/30 11:52:22;;;;;;;7.43;4.78;;;;;;;;;;5050210;28;20045;-59
2024/01/30 11:54:49;;;;;;;7.15;4.68;;;;;;;;;;5066321;28;20517;-58
2024/01/30 11:57:15;;;;;;;9.65;4.72;;;;;;;;;;5051915;28;20076;-58
2024/01/30 11:59:42;;;;;;;7.38;4.57;;;;;;;;;;5055179;28;20044;-58
2024/01/30 12:02:09;;;;;;;9.32;4.68;;;;;;;;;;5075541;28;20063;-58
2024/01/30 12:04:36;;;;;;;7.40;4.55;;;;;;;;;;5061618;28;20060;-57
2024/01/30 12:07:04;;;;;;;9.35;5.13;;;;;;;;;;5067832;28;20065;-58
2024/01/30 12:09:31;;;;;;;8.70;5.20;;;;;;;;;;5071775;28;20053;-57
2024/01/30 12:11:58;;;;;;;10.13;5.30;;;;;;;;;;5069750;28;20075;-57
2024/01/30 12:14:25;;;;;;;11.93;5.57;;;;;;;;;;5072140;28;20053;-59
2024/01/30 12:16:52;;;;;;;7.75;4.88;;;;;;;;;;5066925;28;20056;-58
2024/01/30 12:19:24;;;;;;;7.82;4.68;;;;;;;;;;5066487;28;20392;-58
2024/01/30 12:21:55;;;;;;;9.25;5.63;;;;;;;;;;5062041;28;20056;-57
2024/01/30 12:24:23;;;;;;;10.27;5.32;;;;;;;;;;5055814;28;20067;-58
2024/01/30 12:26:50;;;;;;;10.27;5.15;;;;;;;;;;5060415;28;20064;-58
2024/01/30 12:29:17;;;;;;;9.40;4.50;;;;;;;;;;5054306;28;20056;-57
2024/01/30 12:31:44;;;;;;;10.15;5.50;;;;;;;;;;5062988;28;20055;-57
2024/01/30 12:34:14;;;;;;;10.57;5.15;;;;;;;;;;5055330;28;20060;-57
2024/01/30 12:36:41;;;;;;;10.90;5.30;;;;;;;;;;5074470;28;20053;-57
2024/01/30 12:39:11;;;;;;;10.27;4.97;;;;;;;;;;5074283;28;20056;-58
2024/01/30 12:41:40;;;;;;;10.00;5.30;;;;;;;;;;5064301;28;20052;-57
2024/01/30 12:44:06;;;;;;;10.77;5.28;;;;;;;;;;5066367;28;20063;-59
2024/01/30 12:46:35;;;;;;;10.65;5.95;;;;;;;;;;5072721;28;20049;-57
2024/01/30 12:49:02;;;;;;;10.10;5.22;;;;;;;;;;5054726;28;20053;-58
2024/01/30 12:51:28;;;;;;;10.43;5.50;;;;;;;;;;5065879;28;20053;-57
2024/01/30 12:53:55;;;;;;;8.20;5.60;;;;;;;;;;5072807;28;20056;-57
2024/01/30 12:56:23;;;;;;;11.55;5.82;;;;;;;;;;5054530;28;20483;-57
2024/01/30 12:58:51;;;;;;;12.23;5.80;;;;;;;;;;5054991;28;20060;-57
2024/01/30 13:01:18;;;;;;;11.27;5.70;;;;;;;;;;5059515;28;20477;-57
2024/01/30 13:03:44;;;;;;;10.20;5.95;;;;;;;;;;5058967;28;20057;-59
2024/01/30 13:06:11;;;;;;;10.82;5.63;;;;;;;;;;5056179;28;20414;-57
2024/01/30 13:08:38;;;;;;;9.35;5.85;;;;;;;;;;5081800;28;20056;-57
2024/01/30 13:11:05;;;;;;;9.07;5.10;;;;;;;;;;5064316;28;20060;-57
2024/01/30 13:13:32;;;;;;;10.38;5.43;;;;;;;;;;5067503;28;20433;-57
2024/01/30 13:16:00;;;;;;;12.52;5.93;;;;;;;;;;5061346;28;20044;-57
2024/01/30 13:18:27;;;;;;;10.95;5.80;;;;;;;;;;5057836;28;20076;-57
2024/01/30 13:20:54;;;;;;;10.60;5.80;;;;;;;;;;5054576;28;20049;-57
2024/01/30 13:23:21;;;;;;;10.50;5.70;;;;;;;;;;5061398;28;20052;-57
2024/01/30 13:25:48;;;;;;;13.80;6.63;;;;;;;;;;5073812;28;20056;-58
2024/01/30 13:28:14;;;;;;;14.07;6.07;;;;;;;;;;5072000;28;20079;-57
2024/01/30 13:30:41;;;;;;;9.32;5.65;;;;;;;;;;5069433;28;20045;-57
2024/01/30 13:33:09;;;;;;;9.95;6.07;;;;;;;;;;5055314;28;20052;-57
2024/01/30 13:35:36;;;;;;;12.20;6.63;;;;;;;;;;5059077;28;20053;-57
2024/01/30 13:38:03;;;;;;;9.32;6.18;;;;;;;;;;5066615;28;20055;-57
2024/01/30 13:40:30;;;;;;;7.35;5.78;;;;;;;;;;5073151;28;20049;-57
2024/01/30 13:42:57;;;;;;;10.80;6.00;;;;;;;;;;5063559;28;20048;-57
2024/01/30 13:45:23;;;;;;;10.55;6.38;;;;;;;;;;5058032;28;20752;-57
2024/01/30 13:47:50;;;;;;;10.90;6.65;;;;;;;;;;5064303;28;20049;-57
2024/01/30 13:50:19;;;;;;;12.77;6.60;;;;;;;;;;5054022;28;20049;-57
2024/01/30 13:52:45;;;;;;;10.07;6.50;;;;;;;;;;5053469;28;20049;-57
2024/01/30 13:55:12;;;;;;;16.40;7.13;;;;;;;;;;5054083;28;20071;-57
2024/01/30 13:57:39;;;;;;;8.43;6.88;;;;;;;;;;5057383;28;20048;-57
2024/01/30 14:00:07;;;;;;;12.48;7.70;;;;;;;;;;5069322;28;20405;-57
2024/01/30 14:02:34;;;;;;;9.38;6.45;;;;;;;;;;5053384;28;20057;-57
2024/01/30 14:05:00;;;;;;;10.63;6.20;;;;;;;;;;5053538;28;20048;-58
2024/01/30 14:07:29;;;;;;;10.57;6.85;;;;;;;;;;5054021;28;20053;-59
2024/01/30 14:09:56;;;;;;;11.90;7.03;;;;;;;;;;5066334;28;20049;-57
2024/01/30 14:12:23;;;;;;;9.48;7.13;;;;;;;;;;5056212;28;20053;-57
2024/01/30 14:14:50;;;;;;;12.38;7.60;;;;;;;;;;5062679;28;20391;-57
2024/01/30 14:17:16;;;;;;;11.20;7.07;;;;;;;;;;5090086;28;20052;-57
2024/01/30 14:19:43;;;;;;;11.43;7.38;;;;;;;;;;5061234;28;20051;-58
2024/01/30 14:22:10;;;;;;;10.00;6.97;;;;;;;;;;5072369;28;20044;-57
2024/01/30 14:24:38;;;;;;;10.02;7.10;;;;;;;;;;5065259;28;20406;-56
2024/01/30 14:27:06;;;;;;;10.15;7.05;;;;;;;;;;5052708;28;20473;-58
2024/01/30 14:29:32;;;;;;;10.13;7.32;;;;;;;;;;5067938;28;20061;-58
2024/01/30 14:31:59;;;;;;;10.88;7.55;;;;;;;;;;5063915;28;20048;-57
2024/01/30 14:34:27;;;;;;;12.07;7.43;;;;;;;;;;5072055;28;20048;-57
2024/01/30 14:36:53;;;;;;;10.20;7.68;;;;;;;;;;5053423;28;20057;-57